• Join FlightAware (Why Join?)
  • Login
  • US Flag 
02:19AM EST


 

Airport Tracker/Info


-or-


 

Live Flight TrackerFlight Track Log ✈ UCA3603 ✈ 27-Apr-2014 ✈ KIAD - KCHO

Flight Track Log - Related Links

Times and Time Zones

All times are in EDT time to prevent confusion due to time zone crossing. See the UCA3603 flight status page for this flight to view local times or setup timezone preferences in your user account.

Time Position Orientation Groundspeed Altitude Reporting Facility
EDT Latitude Longitude Course Direction KTS MPH feet Rate Location/Type
10:17PM 38.9500 -77.5167 247° West 147 169 1,700  Level Potomac TRACON
10:18PM 38.9333 -77.5667 247° West 166 191 3,300 1,587 Climbing Potomac TRACON
10:19PM 38.9333 -77.6333 270° West 168 193 4,900 1,218 Climbing Potomac TRACON
10:20PM 38.9333 -77.7000 270° West 178 205 6,000 500 Climbing Potomac TRACON
10:21PM 38.8833 -77.7667 226° Southwest 229 264 6,000  Level Potomac TRACON
10:22PM 38.8333 -77.8167 218° Southwest 244 281 6,000  Level Potomac TRACON
10:23PM 38.7667 -77.8667 210° Southwest 246 283 6,000  Level Potomac TRACON
10:24PM 38.7167 -77.9167 218° Southwest 241 277 6,000  Level Potomac TRACON
10:25PM 38.6833 -77.9500 218° Southwest 238 274 6,000  Level Potomac TRACON
10:26PM 38.6333 -78.0000 218° Southwest 237 273 6,000  Level Potomac TRACON
10:27PM 38.5667 -78.0667 218° Southwest 231 266 6,000  Level Potomac TRACON
10:28PM 38.5167 -78.1000 208° Southwest 225 259 6,000 -50 Level Potomac TRACON
10:29PM 38.4667 -78.1500 218° Southwest 220 253 5,900 -50 Descending Potomac TRACON
10:30PM 38.4167 -78.2000 218° Southwest 221 254 5,900  Level Potomac TRACON
10:31PM 38.3667 -78.2333 208° Southwest 218 251 5,900  Level Potomac TRACON
10:32PM 38.3167 -78.2833 218° Southwest 220 253 5,900 -250 Level Potomac TRACON
10:33PM 38.2667 -78.3333 218° Southwest 235 270 5,400 -842 Descending Potomac TRACON
10:34PM 38.2167 -78.3667 208° Southwest 219 252 4,300 -1,263 Descending Potomac TRACON
10:35PM 38.1667 -78.3833 195° South 196 226 3,000 -909 Descending Potomac TRACON
10:36PM 38.1167 -78.4167 208° Southwest 158 182 2,300 -682 Descending Potomac TRACON
10:37PM 38.1000 -78.4500 238° Southwest 142 163 1,500 -800 Descending Potomac TRACON
10:39PM 38.1333 -78.4500 195° South  Level FlightAware Approximate
10:46PM 38.1396 -78.4523 195° South  Level Estimated